Juneau, AK

8:58 PM AKST on February 08, 2016 (GMT -0900)
Juneau International | | Change Station
CLOSE
Current Station
Airport
Location: Juneau,
Elevation: 23 ft
Nearby Weather Stations

Elev 23 ft 58.35 °N, 134.58 °W | Updated 5 minutes ago

Overcast
Overcast
47 °F
Feels Like 47 °F
N
21
Wind Variable Wind from SE
Gusts 29 mph

Today
High -- | Low -- °F
--% Chance of Precip.
Yesterday
High -- | Low -- °F
Precip. -- in
Pressure 29.90 in
Visibility 10.0 miles
Clouds Few 1000 ft
Mostly Cloudy 2700 ft
Overcast 4600 ft
Dew Point 41 °F
Humidity 80%
Rainfall 0.16 in
Snow Depth Not available.
7:48 AM 4:37 PM
New Moon, 1% visible
METAR PAJN 090553Z 13018G25KT 10SM FEW010 BKN027 OVC046 08/05 A2990 RMK AO2 PK WND 13026/0539 RAE31 SLP124 P0000 60003 T00830050 10083 20028 53014
Pressure 29.90 in
Visibility 10.0 miles
Clouds Few 1000 ft
Mostly Cloudy 2700 ft
Overcast 4600 ft
Dew Point 41 °F
Humidity 80%
Rainfall 0.16 in
Snow Depth Not available.
7:48 AM 4:37 PM
New Moon, 1% visible
METAR PAJN 090553Z 13018G25KT 10SM FEW010 BKN027 OVC046 08/05 A2990 RMK AO2 PK WND 13026/0539 RAE31 SLP124 P0000 60003 T00830050 10083 20028 53014

10-Day Weather Forecast

Almanac

Astronomy

Feb. 08, 2016 Rise Set
Actual Time
Civil Twilight
Nautical Twilight
Astronomical Twilight
Moon
Length of Visible Light
Length of Day
Tomorrow will be .
, % of the Moon is Illuminated

Today's Extremes

State Highs State Lows

Community

WunderPhotos

Upload Photos

1,891,566 photos uploaded!

WunderBlog® & News

Nearby

Air Quality

  Air Quality AQ Index Pollutant
Not available.

Snow Depth

Station Depth Elevation

Earthquake Activity

City Distance Mag. Time & Date
Minimum magnitude displayed is 2.5.

Coastal Water Temperatures

Place Temperature

Stations

Nearby Weather Stations

Station Location Temp. Windchill Dew Point Humidity Wind Precip. Elev Updated Type
                   

Watches & Warnings

There are currently no watches in effect.